YPWR

Woomera Airfield

Airport
ICAO code
YPWR
IATA Code
UMR
Summary
ICAO Region
APAC
ICAO Territory
Location

Woomera, South Australia

Serving
Woomera
Elevation
548 ft
Coordinates
31° 8' 39" S , 136° 49' 1" E
Metar
Observation
YPWR 092000Z AUTO 04013KT 9999 // NCD 21/02 Q1009 RF00.0/000.2
Station
Woomera Aerodrome
Date/Time
2022-12-09 20:00:00
Wind direction
40°
Wind speed
13 kts
Lowest cloud amount
no clouds detected
Temperature
21°C
Dew point
2°C
Humidity
28%
QNH
1009 hPa
Weather condition
n/a

Airport map

Aerial View

SKYbrary Partners:

Safety knowledge contributed by: